sensor_id;sensor_type;location;lat;lon;timestamp;temperature;humidity
3478;DHT22;37937;61.490;23.506;2022-09-03T00:01:50;5.30;99.90
3478;DHT22;37937;61.490;23.506;2022-09-03T00:04:23;5.20;99.90
3478;DHT22;37937;61.490;23.506;2022-09-03T00:06:52;5.30;99.90
3478;DHT22;37937;61.490;23.506;2022-09-03T00:09:27;5.20;99.90
3478;DHT22;37937;61.490;23.506;2022-09-03T00:12:10;5.20;99.90
3478;DHT22;37937;61.490;23.506;2022-09-03T00:14:42;5.20;99.90
3478;DHT22;37937;61.490;23.506;2022-09-03T00:17:10;5.20;99.90
3478;DHT22;37937;61.490;23.506;2022-09-03T00:19:43;5.10;99.90
3478;DHT22;37937;61.490;23.506;2022-09-03T00:22:13;5.10;99.90
3478;DHT22;37937;61.490;23.506;2022-09-03T00:24:39;5.00;99.90
3478;DHT22;37937;61.490;23.506;2022-09-03T00:27:09;5.10;99.90
3478;DHT22;37937;61.490;23.506;2022-09-03T00:29:38;5.00;99.90
3478;DHT22;37937;61.490;23.506;2022-09-03T00:32:07;5.00;99.90
3478;DHT22;37937;61.490;23.506;2022-09-03T00:34:37;5.00;99.90
3478;DHT22;37937;61.490;23.506;2022-09-03T00:37:06;5.10;99.90
3478;DHT22;37937;61.490;23.506;2022-09-03T00:39:32;5.00;99.90
3478;DHT22;37937;61.490;23.506;2022-09-03T00:45:28;5.00;99.90
3478;DHT22;37937;61.490;23.506;2022-09-03T00:52:37;4.90;99.90
3478;DHT22;37937;61.490;23.506;2022-09-03T00:55:12;4.80;99.90
3478;DHT22;37937;61.490;23.506;2022-09-03T01:00:16;4.90;99.90
3478;DHT22;37937;61.490;23.506;2022-09-03T01:05:17;4.90;99.90
3478;DHT22;37937;61.490;23.506;2022-09-03T01:10:45;4.90;99.90
3478;DHT22;37937;61.490;23.506;2022-09-03T01:23:42;4.90;99.90
3478;DHT22;37937;61.490;23.506;2022-09-03T01:28:48;4.90;99.90
3478;DHT22;37937;61.490;23.506;2022-09-03T01:36:50;5.00;99.90
3478;DHT22;37937;61.490;23.506;2022-09-03T01:39:26;5.00;99.90
3478;DHT22;37937;61.490;23.506;2022-09-03T01:47:42;5.00;99.90
3478;DHT22;37937;61.490;23.506;2022-09-03T02:00:52;5.20;99.90
3478;DHT22;37937;61.490;23.506;2022-09-03T02:03:21;5.20;99.90
3478;DHT22;37937;61.490;23.506;2022-09-03T02:05:47;5.20;99.90
3478;DHT22;37937;61.490;23.506;2022-09-03T02:08:17;5.20;99.90
3478;DHT22;37937;61.490;23.506;2022-09-03T02:10:50;5.20;99.90
3478;DHT22;37937;61.490;23.506;2022-09-03T02:15:49;5.30;99.90
3478;DHT22;37937;61.490;23.506;2022-09-03T02:18:17;5.30;99.90
3478;DHT22;37937;61.490;23.506;2022-09-03T02:20:44;5.30;99.90
3478;DHT22;37937;61.490;23.506;2022-09-03T02:23:12;5.30;99.90
3478;DHT22;37937;61.490;23.506;2022-09-03T02:25:39;5.30;99.90
3478;DHT22;37937;61.490;23.506;2022-09-03T02:28:06;5.30;99.90
3478;DHT22;37937;61.490;23.506;2022-09-03T02:30:32;5.40;99.90
3478;DHT22;37937;61.490;23.506;2022-09-03T02:32:58;5.40;99.90
3478;DHT22;37937;61.490;23.506;2022-09-03T02:35:24;5.40;99.90
3478;DHT22;37937;61.490;23.506;2022-09-03T02:37:50;5.40;99.90
3478;DHT22;37937;61.490;23.506;2022-09-03T02:40:15;5.40;99.90
3478;DHT22;37937;61.490;23.506;2022-09-03T02:42:41;5.40;99.90
3478;DHT22;37937;61.490;23.506;2022-09-03T02:45:19;5.40;99.90
3478;DHT22;37937;61.490;23.506;2022-09-03T02:47:49;5.40;99.90
3478;DHT22;37937;61.490;23.506;2022-09-03T02:50:16;5.40;99.90
3478;DHT22;37937;61.490;23.506;2022-09-03T02:52:42;5.40;99.90
3478;DHT22;37937;61.490;23.506;2022-09-03T02:55:08;5.40;99.90
3478;DHT22;37937;61.490;23.506;2022-09-03T02:57:33;5.50;99.90
3478;DHT22;37937;61.490;23.506;2022-09-03T02:59:59;5.50;99.90
3478;DHT22;37937;61.490;23.506;2022-09-03T03:02:24;5.40;99.90
3478;DHT22;37937;61.490;23.506;2022-09-03T03:04:50;5.40;99.90
3478;DHT22;37937;61.490;23.506;2022-09-03T03:07:16;5.40;99.90
3478;DHT22;37937;61.490;23.506;2022-09-03T03:09:41;5.40;99.90
3478;DHT22;37937;61.490;23.506;2022-09-03T03:12:08;5.40;99.90
3478;DHT22;37937;61.490;23.506;2022-09-03T03:14:34;5.40;99.90
3478;DHT22;37937;61.490;23.506;2022-09-03T03:17:00;5.30;99.90
3478;DHT22;37937;61.490;23.506;2022-09-03T03:19:25;5.30;99.90
3478;DHT22;37937;61.490;23.506;2022-09-03T03:21:51;5.30;99.90
3478;DHT22;37937;61.490;23.506;2022-09-03T03:24:17;5.30;99.90
3478;DHT22;37937;61.490;23.506;2022-09-03T03:26:42;5.30;99.90
3478;DHT22;37937;61.490;23.506;2022-09-03T03:29:13;5.30;99.90
3478;DHT22;37937;61.490;23.506;2022-09-03T03:31:38;5.30;99.90
3478;DHT22;37937;61.490;23.506;2022-09-03T03:34:04;5.30;99.90
3478;DHT22;37937;61.490;23.506;2022-09-03T03:36:30;5.30;99.90
3478;DHT22;37937;61.490;23.506;2022-09-03T03:38:57;5.40;99.90
3478;DHT22;37937;61.490;23.506;2022-09-03T03:41:24;5.40;99.90
3478;DHT22;37937;61.490;23.506;2022-09-03T03:43:54;5.40;99.90
3478;DHT22;37937;61.490;23.506;2022-09-03T03:46:20;5.40;99.90
3478;DHT22;37937;61.490;23.506;2022-09-03T03:48:47;5.40;99.90
3478;DHT22;37937;61.490;23.506;2022-09-03T03:51:12;5.40;99.90
3478;DHT22;37937;61.490;23.506;2022-09-03T03:53:38;5.40;99.90
3478;DHT22;37937;61.490;23.506;2022-09-03T03:56:05;5.40;99.90
3478;DHT22;37937;61.490;23.506;2022-09-03T03:58:31;5.40;99.90
3478;DHT22;37937;61.490;23.506;2022-09-03T04:01:06;5.40;99.90
3478;DHT22;37937;61.490;23.506;2022-09-03T04:03:33;5.40;99.90
3478;DHT22;37937;61.490;23.506;2022-09-03T04:05:58;5.50;99.90
3478;DHT22;37937;61.490;23.506;2022-09-03T04:08:25;5.40;99.90
3478;DHT22;37937;61.490;23.506;2022-09-03T04:10:51;5.40;99.90
3478;DHT22;37937;61.490;23.506;2022-09-03T04:13:17;5.40;99.90
3478;DHT22;37937;61.490;23.506;2022-09-03T04:15:43;5.40;99.90
3478;DHT22;37937;61.490;23.506;2022-09-03T04:18:09;5.40;99.90
3478;DHT22;37937;61.490;23.506;2022-09-03T04:20:34;5.40;99.90
3478;DHT22;37937;61.490;23.506;2022-09-03T04:23:01;5.40;99.90
3478;DHT22;37937;61.490;23.506;2022-09-03T04:25:26;5.40;99.90
3478;DHT22;37937;61.490;23.506;2022-09-03T04:27:52;5.40;99.90
3478;DHT22;37937;61.490;23.506;2022-09-03T04:30:18;5.40;99.90
3478;DHT22;37937;61.490;23.506;2022-09-03T04:32:44;5.40;99.90
3478;DHT22;37937;61.490;23.506;2022-09-03T04:35:19;5.40;99.90
3478;DHT22;37937;61.490;23.506;2022-09-03T04:37:45;5.40;99.90
3478;DHT22;37937;61.490;23.506;2022-09-03T04:40:11;5.50;99.90
3478;DHT22;37937;61.490;23.506;2022-09-03T04:42:37;5.50;99.90
3478;DHT22;37937;61.490;23.506;2022-09-03T04:45:02;5.60;99.90
3478;DHT22;37937;61.490;23.506;2022-09-03T04:47:28;5.60;99.90
3478;DHT22;37937;61.490;23.506;2022-09-03T04:49:54;5.60;99.90
3478;DHT22;37937;61.490;23.506;2022-09-03T04:52:20;5.60;99.90
3478;DHT22;37937;61.490;23.506;2022-09-03T04:54:45;5.70;99.90
3478;DHT22;37937;61.490;23.506;2022-09-03T04:57:11;5.70;99.90
3478;DHT22;37937;61.490;23.506;2022-09-03T04:59:37;5.70;99.90
3478;DHT22;37937;61.490;23.506;2022-09-03T05:02:03;5.70;99.90
3478;DHT22;37937;61.490;23.506;2022-09-03T05:04:29;5.70;99.90
3478;DHT22;37937;61.490;23.506;2022-09-03T05:06:54;5.80;99.90
3478;DHT22;37937;61.490;23.506;2022-09-03T05:09:20;5.90;99.90
3478;DHT22;37937;61.490;23.506;2022-09-03T05:11:46;6.10;99.90
3478;DHT22;37937;61.490;23.506;2022-09-03T05:14:11;6.20;99.90
3478;DHT22;37937;61.490;23.506;2022-09-03T05:16:37;6.30;99.90
3478;DHT22;37937;61.490;23.506;2022-09-03T05:19:03;6.40;99.90
3478;DHT22;37937;61.490;23.506;2022-09-03T05:21:30;6.40;99.90
3478;DHT22;37937;61.490;23.506;2022-09-03T05:23:56;6.40;99.90
3478;DHT22;37937;61.490;23.506;2022-09-03T05:26:25;6.50;99.90
3478;DHT22;37937;61.490;23.506;2022-09-03T05:28:54;6.50;99.90
3478;DHT22;37937;61.490;23.506;2022-09-03T05:31:22;6.60;99.90
3478;DHT22;37937;61.490;23.506;2022-09-03T05:33:48;6.80;99.90
3478;DHT22;37937;61.490;23.506;2022-09-03T05:36:15;6.90;99.90
3478;DHT22;37937;61.490;23.506;2022-09-03T05:38:42;7.00;99.90
3478;DHT22;37937;61.490;23.506;2022-09-03T05:41:08;7.10;99.90
3478;DHT22;37937;61.490;23.506;2022-09-03T05:43:35;7.40;99.90
3478;DHT22;37937;61.490;23.506;2022-09-03T05:46:02;7.70;99.90
3478;DHT22;37937;61.490;23.506;2022-09-03T05:48:28;8.00;99.90
3478;DHT22;37937;61.490;23.506;2022-09-03T05:50:58;8.40;99.90
3478;DHT22;37937;61.490;23.506;2022-09-03T05:53:24;8.30;99.90
3478;DHT22;37937;61.490;23.506;2022-09-03T05:55:59;8.50;99.90
3478;DHT22;37937;61.490;23.506;2022-09-03T05:58:29;8.70;99.90
3478;DHT22;37937;61.490;23.506;2022-09-03T06:00:55;8.90;99.90
3478;DHT22;37937;61.490;23.506;2022-09-03T06:03:20;9.20;99.90
3478;DHT22;37937;61.490;23.506;2022-09-03T06:05:50;9.20;99.90
3478;DHT22;37937;61.490;23.506;2022-09-03T06:08:16;9.10;99.90
3478;DHT22;37937;61.490;23.506;2022-09-03T06:10:41;8.80;99.90
3478;DHT22;37937;61.490;23.506;2022-09-03T06:13:07;8.80;99.90
3478;DHT22;37937;61.490;23.506;2022-09-03T06:15:33;8.90;99.90
3478;DHT22;37937;61.490;23.506;2022-09-03T06:17:58;8.80;99.90
3478;DHT22;37937;61.490;23.506;2022-09-03T06:20:24;8.90;99.90
3478;DHT22;37937;61.490;23.506;2022-09-03T06:22:53;8.90;99.90
3478;DHT22;37937;61.490;23.506;2022-09-03T06:25:19;8.80;99.90
3478;DHT22;37937;61.490;23.506;2022-09-03T06:27:45;8.80;99.90
3478;DHT22;37937;61.490;23.506;2022-09-03T06:30:12;8.90;99.90
3478;DHT22;37937;61.490;23.506;2022-09-03T06:32:46;9.10;99.90
3478;DHT22;37937;61.490;23.506;2022-09-03T06:35:12;8.90;99.90
3478;DHT22;37937;61.490;23.506;2022-09-03T06:37:38;9.00;99.90
3478;DHT22;37937;61.490;23.506;2022-09-03T06:40:04;9.10;99.90
3478;DHT22;37937;61.490;23.506;2022-09-03T06:42:32;9.40;99.90
3478;DHT22;37937;61.490;23.506;2022-09-03T06:44:59;9.50;99.90
3478;DHT22;37937;61.490;23.506;2022-09-03T06:47:24;9.70;99.90
3478;DHT22;37937;61.490;23.506;2022-09-03T06:49:50;9.80;99.90
3478;DHT22;37937;61.490;23.506;2022-09-03T06:52:16;9.90;99.90
3478;DHT22;37937;61.490;23.506;2022-09-03T06:54:41;10.10;99.90
3478;DHT22;37937;61.490;23.506;2022-09-03T06:57:07;10.00;99.90
3478;DHT22;37937;61.490;23.506;2022-09-03T06:59:33;10.30;99.90
3478;DHT22;37937;61.490;23.506;2022-09-03T07:01:58;10.40;99.90
3478;DHT22;37937;61.490;23.506;2022-09-03T07:04:25;10.40;99.90
3478;DHT22;37937;61.490;23.506;2022-09-03T07:06:51;10.50;99.90
3478;DHT22;37937;61.490;23.506;2022-09-03T07:09:17;10.80;99.90
3478;DHT22;37937;61.490;23.506;2022-09-03T07:11:43;10.60;99.90
3478;DHT22;37937;61.490;23.506;2022-09-03T07:14:11;10.50;99.90
3478;DHT22;37937;61.490;23.506;2022-09-03T07:16:37;10.30;99.90
3478;DHT22;37937;61.490;23.506;2022-09-03T07:19:04;10.20;99.90
3478;DHT22;37937;61.490;23.506;2022-09-03T07:21:31;10.30;99.90
3478;DHT22;37937;61.490;23.506;2022-09-03T07:23:58;10.50;99.90
3478;DHT22;37937;61.490;23.506;2022-09-03T07:26:28;10.30;99.90
3478;DHT22;37937;61.490;23.506;2022-09-03T07:28:54;10.20;99.90
3478;DHT22;37937;61.490;23.506;2022-09-03T07:31:21;10.20;99.90
3478;DHT22;37937;61.490;23.506;2022-09-03T07:33:52;10.20;99.90
3478;DHT22;37937;61.490;23.506;2022-09-03T07:36:19;10.30;99.90
3478;DHT22;37937;61.490;23.506;2022-09-03T07:38:45;10.40;99.90
3478;DHT22;37937;61.490;23.506;2022-09-03T07:41:12;10.50;99.90
3478;DHT22;37937;61.490;23.506;2022-09-03T07:43:38;10.50;99.90
3478;DHT22;37937;61.490;23.506;2022-09-03T07:46:08;10.60;99.90
3478;DHT22;37937;61.490;23.506;2022-09-03T07:48:40;10.60;99.90
3478;DHT22;37937;61.490;23.506;2022-09-03T07:51:06;10.90;99.90
3478;DHT22;37937;61.490;23.506;2022-09-03T07:53:33;11.00;99.90
3478;DHT22;37937;61.490;23.506;2022-09-03T07:56:03;11.10;99.90
3478;DHT22;37937;61.490;23.506;2022-09-03T07:58:29;10.80;99.90
3478;DHT22;37937;61.490;23.506;2022-09-03T08:00:56;10.90;99.90
3478;DHT22;37937;61.490;23.506;2022-09-03T08:03:21;10.60;99.90
3478;DHT22;37937;61.490;23.506;2022-09-03T08:05:47;10.30;99.90
3478;DHT22;37937;61.490;23.506;2022-09-03T08:08:13;10.30;99.90
3478;DHT22;37937;61.490;23.506;2022-09-03T08:10:39;10.40;99.90
3478;DHT22;37937;61.490;23.506;2022-09-03T08:13:05;10.50;99.90
3478;DHT22;37937;61.490;23.506;2022-09-03T08:15:31;10.40;99.90
3478;DHT22;37937;61.490;23.506;2022-09-03T08:17:58;10.50;99.90
3478;DHT22;37937;61.490;23.506;2022-09-03T08:20:25;10.80;99.90
3478;DHT22;37937;61.490;23.506;2022-09-03T08:22:51;10.70;99.90
3478;DHT22;37937;61.490;23.506;2022-09-03T08:25:16;10.80;99.90
3478;DHT22;37937;61.490;23.506;2022-09-03T08:27:42;10.80;99.90
3478;DHT22;37937;61.490;23.506;2022-09-03T08:30:08;10.80;99.90
3478;DHT22;37937;61.490;23.506;2022-09-03T08:32:38;11.00;99.90
3478;DHT22;37937;61.490;23.506;2022-09-03T08:35:05;10.80;99.90
3478;DHT22;37937;61.490;23.506;2022-09-03T08:37:31;10.70;99.90
3478;DHT22;37937;61.490;23.506;2022-09-03T08:39:57;10.80;99.90
3478;DHT22;37937;61.490;23.506;2022-09-03T08:42:31;10.50;99.90
3478;DHT22;37937;61.490;23.506;2022-09-03T08:44:58;10.60;99.90
3478;DHT22;37937;61.490;23.506;2022-09-03T08:47:32;10.60;99.90
3478;DHT22;37937;61.490;23.506;2022-09-03T08:57:35;11.60;99.90
3478;DHT22;37937;61.490;23.506;2022-09-03T09:00:02;11.80;99.90
3478;DHT22;37937;61.490;23.506;2022-09-03T09:02:35;12.20;99.90
3478;DHT22;37937;61.490;23.506;2022-09-03T09:05:16;12.00;94.30
3478;DHT22;37937;61.490;23.506;2022-09-03T09:07:45;11.90;93.90
3478;DHT22;37937;61.490;23.506;2022-09-03T09:12:58;11.70;97.40
3478;DHT22;37937;61.490;23.506;2022-09-03T09:15:31;12.00;99.90
3478;DHT22;37937;61.490;23.506;2022-09-03T09:23:18;11.90;95.50
3478;DHT22;37937;61.490;23.506;2022-09-03T09:25:49;11.90;95.90
3478;DHT22;37937;61.490;23.506;2022-09-03T09:28:21;11.90;94.30
3478;DHT22;37937;61.490;23.506;2022-09-03T09:30:49;12.40;77.10
3478;DHT22;37937;61.490;23.506;2022-09-03T09:33:15;12.60;84.50
3478;DHT22;37937;61.490;23.506;2022-09-03T09:35:41;12.80;76.30
3478;DHT22;37937;61.490;23.506;2022-09-03T09:38:08;12.60;64.30
3478;DHT22;37937;61.490;23.506;2022-09-03T09:40:35;12.40;71.60
3478;DHT22;37937;61.490;23.506;2022-09-03T09:43:08;12.20;74.30
3478;DHT22;37937;61.490;23.506;2022-09-03T09:45:36;11.80;90.40
3478;DHT22;37937;61.490;23.506;2022-09-03T09:48:05;11.90;91.70
3478;DHT22;37937;61.490;23.506;2022-09-03T09:50:32;12.00;87.10
3478;DHT22;37937;61.490;23.506;2022-09-03T09:53:01;11.90;93.90
3478;DHT22;37937;61.490;23.506;2022-09-03T09:55:32;12.20;94.90
3478;DHT22;37937;61.490;23.506;2022-09-03T09:58:05;12.10;85.10
3478;DHT22;37937;61.490;23.506;2022-09-03T10:00:33;11.90;90.30
3478;DHT22;37937;61.490;23.506;2022-09-03T10:03:04;12.00;91.00
3478;DHT22;37937;61.490;23.506;2022-09-03T10:05:31;12.20;85.20
3478;DHT22;37937;61.490;23.506;2022-09-03T10:08:04;12.00;91.20
3478;DHT22;37937;61.490;23.506;2022-09-03T10:10:35;12.00;84.60
3478;DHT22;37937;61.490;23.506;2022-09-03T10:13:15;11.70;89.10
3478;DHT22;37937;61.490;23.506;2022-09-03T10:16:05;11.80;84.20
3478;DHT22;37937;61.490;23.506;2022-09-03T10:18:42;12.20;75.70
3478;DHT22;37937;61.490;23.506;2022-09-03T10:23:55;12.80;71.10
3478;DHT22;37937;61.490;23.506;2022-09-03T10:26:22;12.80;57.90
3478;DHT22;37937;61.490;23.506;2022-09-03T10:28:55;12.70;57.60
3478;DHT22;37937;61.490;23.506;2022-09-03T10:36:17;12.20;61.80
3478;DHT22;37937;61.490;23.506;2022-09-03T10:38:54;12.20;66.20
3478;DHT22;37937;61.490;23.506;2022-09-03T10:44:14;12.70;64.10
3478;DHT22;37937;61.490;23.506;2022-09-03T10:49:17;12.70;60.30
3478;DHT22;37937;61.490;23.506;2022-09-03T10:52:09;12.70;60.90
3478;DHT22;37937;61.490;23.506;2022-09-03T10:55:06;12.70;65.70
3478;DHT22;37937;61.490;23.506;2022-09-03T10:59:56;12.70;50.10
3478;DHT22;37937;61.490;23.506;2022-09-03T11:05:11;13.00;48.90
3478;DHT22;37937;61.490;23.506;2022-09-03T11:07:42;13.00;50.70
3478;DHT22;37937;61.490;23.506;2022-09-03T11:10:20;13.20;54.60
3478;DHT22;37937;61.490;23.506;2022-09-03T11:12:52;13.10;54.70
3478;DHT22;37937;61.490;23.506;2022-09-03T11:15:25;13.20;57.20
3478;DHT22;37937;61.490;23.506;2022-09-03T11:20:38;12.70;50.60
3478;DHT22;37937;61.490;23.506;2022-09-03T11:23:04;12.80;48.30
3478;DHT22;37937;61.490;23.506;2022-09-03T11:25:33;13.10;53.80
3478;DHT22;37937;61.490;23.506;2022-09-03T11:28:22;13.00;50.10
3478;DHT22;37937;61.490;23.506;2022-09-03T11:33:41;13.30;49.10
3478;DHT22;37937;61.490;23.506;2022-09-03T11:36:07;13.20;44.80
3478;DHT22;37937;61.490;23.506;2022-09-03T11:38:33;13.10;45.60
3478;DHT22;37937;61.490;23.506;2022-09-03T11:41:12;13.30;43.80
3478;DHT22;37937;61.490;23.506;2022-09-03T11:43:38;13.30;44.40
3478;DHT22;37937;61.490;23.506;2022-09-03T11:46:06;13.30;46.90
3478;DHT22;37937;61.490;23.506;2022-09-03T11:48:40;13.30;47.20
3478;DHT22;37937;61.490;23.506;2022-09-03T11:53:52;12.60;54.20
3478;DHT22;37937;61.490;23.506;2022-09-03T11:56:18;12.60;54.70
3478;DHT22;37937;61.490;23.506;2022-09-03T11:58:44;12.90;52.40
3478;DHT22;37937;61.490;23.506;2022-09-03T12:01:11;13.00;53.70
3478;DHT22;37937;61.490;23.506;2022-09-03T12:03:45;12.80;53.10
3478;DHT22;37937;61.490;23.506;2022-09-03T12:11:24;13.10;55.30
3478;DHT22;37937;61.490;23.506;2022-09-03T12:13:58;13.10;52.30
3478;DHT22;37937;61.490;23.506;2022-09-03T12:19:00;12.80;55.00
3478;DHT22;37937;61.490;23.506;2022-09-03T12:21:28;12.90;63.70
3478;DHT22;37937;61.490;23.506;2022-09-03T12:23:55;12.70;55.30
3478;DHT22;37937;61.490;23.506;2022-09-03T12:26:24;12.60;60.20
3478;DHT22;37937;61.490;23.506;2022-09-03T12:28:56;12.60;59.30
3478;DHT22;37937;61.490;23.506;2022-09-03T12:31:22;12.60;54.40
3478;DHT22;37937;61.490;23.506;2022-09-03T12:36:23;12.90;64.20
3478;DHT22;37937;61.490;23.506;2022-09-03T12:38:49;13.10;62.80
3478;DHT22;37937;61.490;23.506;2022-09-03T12:41:19;13.20;60.50
3478;DHT22;37937;61.490;23.506;2022-09-03T12:43:49;13.20;48.90
3478;DHT22;37937;61.490;23.506;2022-09-03T12:46:15;13.10;53.50
3478;DHT22;37937;61.490;23.506;2022-09-03T12:49:00;13.10;55.80
3478;DHT22;37937;61.490;23.506;2022-09-03T12:51:37;13.00;55.30
3478;DHT22;37937;61.490;23.506;2022-09-03T12:54:08;13.00;55.40
3478;DHT22;37937;61.490;23.506;2022-09-03T12:56:42;12.90;56.90
3478;DHT22;37937;61.490;23.506;2022-09-03T12:59:13;12.70;58.00
3478;DHT22;37937;61.490;23.506;2022-09-03T13:01:46;12.70;60.80
3478;DHT22;37937;61.490;23.506;2022-09-03T13:04:15;12.70;65.40
3478;DHT22;37937;61.490;23.506;2022-09-03T13:09:08;12.70;67.10
3478;DHT22;37937;61.490;23.506;2022-09-03T13:11:34;12.70;64.50
3478;DHT22;37937;61.490;23.506;2022-09-03T13:14:04;12.60;61.00
3478;DHT22;37937;61.490;23.506;2022-09-03T13:19:09;12.40;64.50
3478;DHT22;37937;61.490;23.506;2022-09-03T13:29:12;12.60;55.40
3478;DHT22;37937;61.490;23.506;2022-09-03T13:31:46;12.60;55.60
3478;DHT22;37937;61.490;23.506;2022-09-03T13:37:11;12.50;69.10
3478;DHT22;37937;61.490;23.506;2022-09-03T13:39:42;12.30;66.40
3478;DHT22;37937;61.490;23.506;2022-09-03T13:42:19;12.20;63.10
3478;DHT22;37937;61.490;23.506;2022-09-03T13:47:44;12.10;69.00
3478;DHT22;37937;61.490;23.506;2022-09-03T13:50:37;12.10;68.10
3478;DHT22;37937;61.490;23.506;2022-09-03T13:53:17;12.10;71.60
3478;DHT22;37937;61.490;23.506;2022-09-03T13:55:47;12.10;60.80
3478;DHT22;37937;61.490;23.506;2022-09-03T13:58:27;12.00;83.00
3478;DHT22;37937;61.490;23.506;2022-09-03T14:09:03;11.90;82.10
3478;DHT22;37937;61.490;23.506;2022-09-03T14:11:34;11.90;68.40
3478;DHT22;37937;61.490;23.506;2022-09-03T14:14:13;11.80;73.00
3478;DHT22;37937;61.490;23.506;2022-09-03T14:16:52;11.90;71.50
3478;DHT22;37937;61.490;23.506;2022-09-03T14:19:31;12.00;74.10
3478;DHT22;37937;61.490;23.506;2022-09-03T14:21:59;12.00;78.90
3478;DHT22;37937;61.490;23.506;2022-09-03T14:24:28;12.00;71.10
3478;DHT22;37937;61.490;23.506;2022-09-03T14:26:56;12.00;72.20
3478;DHT22;37937;61.490;23.506;2022-09-03T14:29:26;12.10;75.00
3478;DHT22;37937;61.490;23.506;2022-09-03T14:44:53;11.90;82.50
3478;DHT22;37937;61.490;23.506;2022-09-03T14:47:38;11.90;79.10
3478;DHT22;37937;61.490;23.506;2022-09-03T14:52:59;12.00;78.30
3478;DHT22;37937;61.490;23.506;2022-09-03T15:05:37;11.50;99.90
3478;DHT22;37937;61.490;23.506;2022-09-03T15:08:08;11.30;99.90
3478;DHT22;37937;61.490;23.506;2022-09-03T15:10:37;11.30;99.90
3478;DHT22;37937;61.490;23.506;2022-09-03T15:13:18;11.20;99.90
3478;DHT22;37937;61.490;23.506;2022-09-03T15:18:16;11.10;99.90
3478;DHT22;37937;61.490;23.506;2022-09-03T15:20:52;10.90;99.90
3478;DHT22;37937;61.490;23.506;2022-09-03T15:30:50;10.80;99.90
3478;DHT22;37937;61.490;23.506;2022-09-03T15:33:29;10.80;99.90
3478;DHT22;37937;61.490;23.506;2022-09-03T15:36:08;10.70;99.90
3478;DHT22;37937;61.490;23.506;2022-09-03T15:44:06;10.50;99.90
3478;DHT22;37937;61.490;23.506;2022-09-03T15:46:34;10.50;99.90
3478;DHT22;37937;61.490;23.506;2022-09-03T15:49:02;10.50;99.90
3478;DHT22;37937;61.490;23.506;2022-09-03T15:51:33;10.50;99.90
3478;DHT22;37937;61.490;23.506;2022-09-03T15:56:54;10.40;99.90
3478;DHT22;37937;61.490;23.506;2022-09-03T16:12:13;10.40;99.90
3478;DHT22;37937;61.490;23.506;2022-09-03T16:25:09;10.20;99.90
3478;DHT22;37937;61.490;23.506;2022-09-03T16:27:41;10.20;99.90
3478;DHT22;37937;61.490;23.506;2022-09-03T16:30:08;10.20;99.90
3478;DHT22;37937;61.490;23.506;2022-09-03T16:32:50;10.10;99.90
3478;DHT22;37937;61.490;23.506;2022-09-03T16:38:21;10.00;99.90
3478;DHT22;37937;61.490;23.506;2022-09-03T16:43:29;9.80;99.90
3478;DHT22;37937;61.490;23.506;2022-09-03T16:48:25;9.70;99.90
3478;DHT22;37937;61.490;23.506;2022-09-03T16:53:57;9.60;99.90
3478;DHT22;37937;61.490;23.506;2022-09-03T17:12:13;9.20;99.90
3478;DHT22;37937;61.490;23.506;2022-09-03T17:14:57;9.20;99.90
3478;DHT22;37937;61.490;23.506;2022-09-03T17:22:38;9.00;99.90
3478;DHT22;37937;61.490;23.506;2022-09-03T17:30:20;8.80;99.90
3478;DHT22;37937;61.490;23.506;2022-09-03T17:35:16;8.70;99.90
3478;DHT22;37937;61.490;23.506;2022-09-03T17:40:24;8.60;99.90
3478;DHT22;37937;61.490;23.506;2022-09-03T17:43:06;8.60;99.90
3478;DHT22;37937;61.490;23.506;2022-09-03T17:45:43;8.60;99.90
3478;DHT22;37937;61.490;23.506;2022-09-03T17:48:15;8.50;99.90
3478;DHT22;37937;61.490;23.506;2022-09-03T17:50:53;8.40;99.90
3478;DHT22;37937;61.490;23.506;2022-09-03T17:53:24;8.40;99.90
3478;DHT22;37937;61.490;23.506;2022-09-03T17:56:00;8.40;99.90
3478;DHT22;37937;61.490;23.506;2022-09-03T18:03:29;8.20;99.90
3478;DHT22;37937;61.490;23.506;2022-09-03T18:06:02;8.10;99.90
3478;DHT22;37937;61.490;23.506;2022-09-03T18:09:22;8.10;99.90
3478;DHT22;37937;61.490;23.506;2022-09-03T18:11:21;8.10;99.90
3478;DHT22;37937;61.490;23.506;2022-09-03T18:19:42;8.00;99.90
3478;DHT22;37937;61.490;23.506;2022-09-03T18:22:29;8.00;99.90
3478;DHT22;37937;61.490;23.506;2022-09-03T18:25:14;7.90;99.90
3478;DHT22;37937;61.490;23.506;2022-09-03T18:28:05;7.90;99.90
3478;DHT22;37937;61.490;23.506;2022-09-03T18:30:50;7.80;99.90
3478;DHT22;37937;61.490;23.506;2022-09-03T18:33:35;7.80;99.90
3478;DHT22;37937;61.490;23.506;2022-09-03T18:36:19;7.70;99.90
3478;DHT22;37937;61.490;23.506;2022-09-03T18:39:11;7.70;99.90
3478;DHT22;37937;61.490;23.506;2022-09-03T18:45:51;7.70;99.90
3478;DHT22;37937;61.490;23.506;2022-09-03T18:51:00;7.60;99.90
3478;DHT22;37937;61.490;23.506;2022-09-03T18:53:52;7.60;99.90
3478;DHT22;37937;61.490;23.506;2022-09-03T18:56:49;7.50;99.90
3478;DHT22;37937;61.490;23.506;2022-09-03T19:05:21;7.40;99.90
3478;DHT22;37937;61.490;23.506;2022-09-03T19:11:09;7.40;99.90
3478;DHT22;37937;61.490;23.506;2022-09-03T19:14:01;7.40;99.90
3478;DHT22;37937;61.490;23.506;2022-09-03T19:22:48;7.30;99.90
3478;DHT22;37937;61.490;23.506;2022-09-03T19:25:32;7.20;99.90
3478;DHT22;37937;61.490;23.506;2022-09-03T19:28:25;7.20;99.90
3478;DHT22;37937;61.490;23.506;2022-09-03T19:34:16;7.20;99.90
3478;DHT22;37937;61.490;23.506;2022-09-03T19:51:44;7.00;99.90
3478;DHT22;37937;61.490;23.506;2022-09-03T19:54:32;7.00;99.90
3478;DHT22;37937;61.490;23.506;2022-09-03T19:57:17;7.00;99.90
3478;DHT22;37937;61.490;23.506;2022-09-03T20:00:03;7.00;99.90
3478;DHT22;37937;61.490;23.506;2022-09-03T20:02:47;7.00;99.90
3478;DHT22;37937;61.490;23.506;2022-09-03T20:05:31;6.90;99.90
3478;DHT22;37937;61.490;23.506;2022-09-03T20:08:16;6.90;99.90
3478;DHT22;37937;61.490;23.506;2022-09-03T20:11:01;6.80;99.90
3478;DHT22;37937;61.490;23.506;2022-09-03T20:13:28;6.80;99.90
3478;DHT22;37937;61.490;23.506;2022-09-03T20:16:18;6.70;99.90
3478;DHT22;37937;61.490;23.506;2022-09-03T20:18:56;6.70;99.90
3478;DHT22;37937;61.490;23.506;2022-09-03T20:21:24;6.60;99.90
3478;DHT22;37937;61.490;23.506;2022-09-03T20:31:42;6.50;99.90
3478;DHT22;37937;61.490;23.506;2022-09-03T20:34:23;6.50;99.90
3478;DHT22;37937;61.490;23.506;2022-09-03T20:47:13;6.30;99.90
3478;DHT22;37937;61.490;23.506;2022-09-03T20:53:02;6.30;99.90
3478;DHT22;37937;61.490;23.506;2022-09-03T20:55:35;6.30;99.90
3478;DHT22;37937;61.490;23.506;2022-09-03T21:00:35;6.20;99.90
3478;DHT22;37937;61.490;23.506;2022-09-03T21:16:05;6.10;99.90
3478;DHT22;37937;61.490;23.506;2022-09-03T21:18:34;6.10;99.90
3478;DHT22;37937;61.490;23.506;2022-09-03T21:23:44;6.00;99.90
3478;DHT22;37937;61.490;23.506;2022-09-03T21:26:14;6.00;99.90
3478;DHT22;37937;61.490;23.506;2022-09-03T21:28:45;6.00;99.90
3478;DHT22;37937;61.490;23.506;2022-09-03T21:31:37;6.00;99.90
3478;DHT22;37937;61.490;23.506;2022-09-03T21:34:06;5.90;99.90